Time,TemperatureF,DewpointF,PressureIn,WindDirection,WindDirectionDegrees,WindSpeedMPH,WindSpeedGustMPH,Humidity,HourlyPrecipIn,Conditions,Clouds,dailyrainin,SoftwareType,DateUTC
2013-08-09 08:02:00,71.0,70.0,27.73,ESE,121,2.0,2.0,96,0.02,,,0.03,,2013-08-09 12:02:00,
2013-08-09 08:12:00,71.0,70.0,27.73,ESE,121,2.0,2.0,96,0.02,,,0.03,,2013-08-09 12:12:00,
2013-08-09 08:22:00,71.0,70.0,27.73,East,87,1.0,2.0,96,0.03,,,0.04,,2013-08-09 12:22:00,
2013-08-09 08:32:00,71.0,70.0,27.73,ESE,108,0.0,1.0,96,0.06,,,0.07,,2013-08-09 12:32:00,
2013-08-09 08:43:00,71.0,70.0,27.73,ESE,108,0.0,1.0,96,0.06,,,0.07,,2013-08-09 12:43:00,
2013-08-09 08:52:00,71.0,70.0,27.72,ESE,113,0.0,2.0,97,0.14,,,0.16,,2013-08-09 12:52:00,
2013-08-09 09:01:00,71.0,70.0,27.71,ENE,78,1.0,2.0,97,0.15,,,0.18,,2013-08-09 13:01:00,
2013-08-09 09:12:00,71.0,70.0,27.71,ENE,78,1.0,2.0,97,0.15,,,0.18,,2013-08-09 13:12:00,
2013-08-09 09:23:00,71.0,69.0,27.71,SW,236,0.0,5.0,95,0.14,,,0.18,,2013-08-09 13:23:00,
2013-08-09 09:43:00,71.0,69.0,27.71,South,184,0.0,3.0,94,0.11,,,0.18,,2013-08-09 13:43:00,
2013-08-09 09:52:00,71.0,69.0,27.70,ESE,118,1.0,2.0,92,0.01,,,0.18,,2013-08-09 13:52:00,
2013-08-09 10:02:00,71.0,69.0,27.70,ESE,118,1.0,2.0,92,0.01,,,0.18,,2013-08-09 14:02:00,
2013-08-09 10:11:00,71.0,69.0,27.70,ESE,108,1.0,2.0,93,0.00,,,0.18,,2013-08-09 14:11:00,
2013-08-09 10:33:00,71.0,69.0,27.70,East,90,2.0,4.0,94,0.01,,,0.19,,2013-08-09 14:33:00,
2013-08-09 10:43:00,70.0,68.0,27.70,SE,133,2.0,4.0,95,0.02,,,0.20,,2013-08-09 14:43:00,
2013-08-09 10:53:00,70.0,68.0,27.69,SSE,158,3.0,7.0,95,0.03,,,0.21,,2013-08-09 14:53:00,
2013-08-09 11:02:00,70.0,68.0,27.69,ESE,122,4.0,6.0,94,0.03,,,0.21,,2013-08-09 15:02:00,
2013-08-09 11:12:00,70.0,68.0,27.69,ESE,122,4.0,6.0,94,0.03,,,0.21,,2013-08-09 15:12:00,
2013-08-09 11:33:00,71.0,69.0,27.68,SW,226,3.0,9.0,92,0.02,,,0.21,,2013-08-09 15:33:00,
2013-08-09 11:44:00,71.0,68.0,27.68,NE,48,3.0,6.0,91,0.01,,,0.21,,2013-08-09 15:44:00,
2013-08-09 11:53:00,71.0,68.0,27.67,SSW,200,3.0,11.0,91,0.00,,,0.21,,2013-08-09 15:53:00,
2013-08-09 12:02:00,71.0,68.0,27.66,South,177,3.0,7.0,91,0.00,,,0.21,,2013-08-09 16:02:00,
2013-08-09 12:11:00,71.0,68.0,27.66,South,177,3.0,7.0,91,0.00,,,0.21,,2013-08-09 16:11:00,
2013-08-09 12:22:00,71.0,68.0,27.65,NE,44,3.0,10.0,91,0.00,,,0.21,,2013-08-09 16:22:00,
2013-08-09 12:43:00,70.0,68.0,27.65,East,96,3.0,7.0,93,0.01,,,0.22,,2013-08-09 16:43:00,
2013-08-09 12:53:00,70.0,68.0,27.65,East,99,2.0,5.0,94,0.01,,,0.22,,2013-08-09 16:53:00,
2013-08-09 13:02:00,70.0,68.0,27.65,East,99,2.0,5.0,94,0.01,,,0.22,,2013-08-09 17:02:00,
2013-08-09 13:11:00,70.0,68.0,27.65,East,90,4.0,5.0,94,0.01,,,0.22,,2013-08-09 17:11:00,
2013-08-09 13:22:00,70.0,68.0,27.65,ESE,103,2.0,5.0,94,0.01,,,0.22,,2013-08-09 17:22:00,
2013-08-09 13:33:00,70.0,68.0,27.65,ESE,103,2.0,5.0,94,0.01,,,0.22,,2013-08-09 17:33:00,
2013-08-09 13:43:00,70.0,68.0,27.64,SE,127,1.0,4.0,95,0.00,,,0.22,,2013-08-09 17:43:00,
2013-08-09 13:52:00,71.0,69.0,27.63,ESE,115,0.0,2.0,95,0.00,,,0.22,,2013-08-09 17:52:00,
2013-08-09 14:01:00,71.0,69.0,27.63,ESE,115,0.0,2.0,95,0.00,,,0.22,,2013-08-09 18:01:00,
2013-08-09 14:11:00,72.0,70.0,27.62,East,90,2.0,3.0,94,0.00,,,0.22,,2013-08-09 18:11:00,
2013-08-09 14:22:00,73.0,70.0,27.62,West,259,2.0,5.0,90,0.00,,,0.22,,2013-08-09 18:22:00,
2013-08-09 14:32:00,73.0,70.0,27.62,West,259,2.0,5.0,90,0.00,,,0.22,,2013-08-09 18:32:00,
2013-08-09 14:43:00,73.0,70.0,27.61,East,80,2.0,5.0,91,0.00,,,0.22,,2013-08-09 18:43:00,
2013-08-09 14:53:00,74.0,71.0,27.61,WSW,253,1.0,5.0,90,0.00,,,0.22,,2013-08-09 18:53:00,
2013-08-09 15:02:00,74.0,71.0,27.61,West,264,2.0,3.0,89,0.00,,,0.22,,2013-08-09 19:02:00,
2013-08-09 15:11:00,74.0,71.0,27.61,West,264,2.0,3.0,89,0.00,,,0.22,,2013-08-09 19:11:00,
2013-08-09 15:32:00,74.0,71.0,27.60,WSW,256,2.0,8.0,89,0.00,,,0.22,,2013-08-09 19:32:00,
2013-08-09 15:43:00,74.0,71.0,27.60,South,179,4.0,8.0,90,0.00,,,0.22,,2013-08-09 19:43:00,
2013-08-09 15:52:00,71.0,68.0,27.60,West,259,4.0,6.0,91,0.02,,,0.24,,2013-08-09 19:52:00,
2013-08-09 16:02:00,71.0,68.0,27.60,West,259,4.0,6.0,91,0.02,,,0.24,,2013-08-09 20:02:00,
2013-08-09 16:11:00,70.0,68.0,27.59,SW,227,2.0,6.0,95,0.15,,,0.37,,2013-08-09 20:11:00,
2013-08-09 16:22:00,70.0,69.0,27.59,ESE,113,1.0,2.0,96,0.16,,,0.38,,2013-08-09 20:22:00,
2013-08-09 16:43:00,70.0,69.0,27.59,WSW,246,0.0,2.0,96,0.16,,,0.38,,2013-08-09 20:43:00,
2013-08-09 16:52:00,70.0,68.0,27.57,East,94,2.0,3.0,94,0.14,,,0.39,,2013-08-09 20:52:00,
2013-08-09 17:01:00,70.0,68.0,27.57,East,94,2.0,3.0,94,0.14,,,0.39,,2013-08-09 21:01:00,
2013-08-09 17:12:00,70.0,68.0,27.57,East,87,2.0,3.0,94,0.02,,,0.39,,2013-08-09 21:12:00,
2013-08-09 17:22:00,71.0,69.0,27.56,ESE,123,1.0,2.0,94,0.01,,,0.39,,2013-08-09 21:22:00,
2013-08-09 17:33:00,71.0,69.0,27.56,ESE,123,1.0,2.0,94,0.01,,,0.39,,2013-08-09 21:33:00,
2013-08-09 17:43:00,72.0,70.0,27.56,West,273,1.0,2.0,94,0.01,,,0.39,,2013-08-09 21:43:00,
2013-08-09 17:52:00,74.0,72.0,27.57,WNW,298,0.0,2.0,92,0.00,,,0.39,,2013-08-09 21:52:00,
2013-08-09 18:02:00,74.0,71.0,27.56,South,171,0.0,2.0,89,0.00,,,0.39,,2013-08-09 22:02:00,
2013-08-09 18:11:00,74.0,71.0,27.56,South,171,0.0,2.0,89,0.00,,,0.39,,2013-08-09 22:11:00,
2013-08-09 18:22:00,74.0,70.0,27.57,WSW,257,1.0,2.0,87,0.00,,,0.39,,2013-08-09 22:22:00,
2013-08-09 18:42:00,74.0,71.0,27.57,West,259,0.0,1.0,89,0.00,,,0.39,,2013-08-09 22:42:00,
2013-08-09 18:52:00,74.0,70.0,27.57,SSW,212,0.0,1.0,88,0.00,,,0.39,,2013-08-09 22:52:00,
2013-08-09 19:02:00,74.0,70.0,27.57,SSW,212,0.0,1.0,88,0.00,,,0.39,,2013-08-09 23:02:00,
2013-08-09 19:11:00,74.0,70.0,27.57,West,259,1.0,1.0,88,0.00,,,0.39,,2013-08-09 23:11:00,
2013-08-09 19:22:00,74.0,70.0,27.58,West,259,0.0,1.0,88,0.00,,,0.39,,2013-08-09 23:22:00,
2013-08-09 19:32:00,74.0,70.0,27.58,West,259,0.0,1.0,88,0.00,,,0.39,,2013-08-09 23:32:00,
2013-08-09 19:43:00,72.0,69.0,27.58,West,273,1.0,2.0,91,0.00,,,0.39,,2013-08-09 23:43:00,
2013-08-09 19:52:00,71.0,69.0,27.58,West,271,1.0,1.0,94,0.00,,,0.39,,2013-08-09 23:52:00,
2013-08-09 20:01:00,70.0,68.0,27.57,West,271,1.0,1.0,95,0.00,,,0.39,,2013-08-10 00:01:00,
2013-08-09 20:22:00,70.0,69.0,27.58,West,273,0.0,1.0,96,0.00,,,0.39,,2013-08-10 00:22:00,
2013-08-09 20:43:00,70.0,69.0,27.58,WSW,238,0.0,1.0,96,0.00,,,0.39,,2013-08-10 00:43:00,
2013-08-09 20:53:00,70.0,69.0,27.58,WSW,238,0.0,1.0,96,0.00,,,0.39,,2013-08-10 00:53:00,
2013-08-09 21:02:00,70.0,69.0,27.58,WSW,238,0.0,1.0,96,0.00,,,0.39,,2013-08-10 01:02:00,
2013-08-09 21:11:00,70.0,69.0,27.58,WSW,238,0.0,1.0,96,0.00,,,0.39,,2013-08-10 01:11:00,
2013-08-09 22:11:00,68.0,67.0,27.60,WSW,238,0.0,1.0,98,0.00,,,0.39,,2013-08-10 02:11:00,
2013-08-09 22:21:00,68.0,67.0,27.60,WSW,238,0.0,1.0,98,0.00,,,0.39,,2013-08-10 02:21:00,
2013-08-09 22:32:00,68.0,67.0,27.60,WSW,238,0.0,1.0,98,0.00,,,0.39,,2013-08-10 02:32:00,
2013-08-09 22:42:00,68.0,67.0,27.60,WSW,238,0.0,1.0,98,0.00,,,0.39,,2013-08-10 02:42:00,
2013-08-09 22:52:00,68.0,67.0,27.60,WSW,238,0.0,1.0,98,0.00,,,0.39,,2013-08-10 02:52:00,
2013-08-09 23:11:00,67.0,66.0,27.59,SW,236,0.0,1.0,98,0.00,,,0.39,,2013-08-10 03:11:00,
2013-08-09 23:22:00,67.0,66.0,27.59,SW,236,0.0,1.0,98,0.00,,,0.39,,2013-08-10 03:22:00,
2013-08-09 23:32:00,67.0,66.0,27.59,SW,236,0.0,1.0,98,0.00,,,0.39,,2013-08-10 03:32:00,
2013-08-09 23:52:00,67.0,66.0,27.59,SW,228,0.0,1.0,98,0.00,,,0.39,,2013-08-10 03:52:00,